sensor_id;sensor_type;location;lat;lon;timestamp;P1;durP1;ratioP1;P2;durP2;ratioP2
66139;SDS011;52945;51.908;8.364;2023-09-18T00:00:35;5.13;;;3.00;;
66139;SDS011;52945;51.908;8.364;2023-09-18T00:03:36;5.85;;;3.45;;
66139;SDS011;52945;51.908;8.364;2023-09-18T00:06:37;5.28;;;3.20;;
66139;SDS011;52945;51.908;8.364;2023-09-18T00:09:38;5.35;;;2.97;;
66139;SDS011;52945;51.908;8.364;2023-09-18T00:12:39;5.35;;;3.05;;
66139;SDS011;52945;51.908;8.364;2023-09-18T00:15:41;5.38;;;2.90;;
66139;SDS011;52945;51.908;8.364;2023-09-18T00:18:44;7.18;;;3.42;;
66139;SDS011;52945;51.908;8.364;2023-09-18T00:21:45;8.15;;;3.22;;
66139;SDS011;52945;51.908;8.364;2023-09-18T00:24:45;6.00;;;3.17;;
66139;SDS011;52945;51.908;8.364;2023-09-18T00:27:46;7.22;;;3.35;;
66139;SDS011;52945;51.908;8.364;2023-09-18T00:30:47;7.13;;;3.05;;
66139;SDS011;52945;51.908;8.364;2023-09-18T00:33:49;6.55;;;2.92;;
66139;SDS011;52945;51.908;8.364;2023-09-18T00:36:50;5.32;;;3.40;;
66139;SDS011;52945;51.908;8.364;2023-09-18T00:39:50;5.80;;;3.00;;
66139;SDS011;52945;51.908;8.364;2023-09-18T00:42:51;5.45;;;3.15;;
66139;SDS011;52945;51.908;8.364;2023-09-18T00:45:51;6.00;;;3.60;;
66139;SDS011;52945;51.908;8.364;2023-09-18T00:48:52;6.10;;;2.92;;
66139;SDS011;52945;51.908;8.364;2023-09-18T00:51:53;6.03;;;3.13;;
66139;SDS011;52945;51.908;8.364;2023-09-18T00:54:54;8.43;;;3.25;;
66139;SDS011;52945;51.908;8.364;2023-09-18T00:57:56;7.10;;;3.40;;
66139;SDS011;52945;51.908;8.364;2023-09-18T01:00:56;6.90;;;3.20;;
66139;SDS011;52945;51.908;8.364;2023-09-18T01:03:58;7.45;;;3.40;;
66139;SDS011;52945;51.908;8.364;2023-09-18T01:07:00;5.75;;;3.05;;
66139;SDS011;52945;51.908;8.364;2023-09-18T01:10:03;4.82;;;3.30;;
66139;SDS011;52945;51.908;8.364;2023-09-18T01:13:07;8.68;;;3.40;;
66139;SDS011;52945;51.908;8.364;2023-09-18T01:16:27;5.97;;;3.22;;
66139;SDS011;52945;51.908;8.364;2023-09-18T01:22:40;5.97;;;2.92;;
66139;SDS011;52945;51.908;8.364;2023-09-18T01:25:41;4.97;;;3.05;;
66139;SDS011;52945;51.908;8.364;2023-09-18T01:28:42;6.05;;;3.33;;
66139;SDS011;52945;51.908;8.364;2023-09-18T01:31:43;5.95;;;3.20;;
66139;SDS011;52945;51.908;8.364;2023-09-18T01:34:47;6.03;;;3.20;;
66139;SDS011;52945;51.908;8.364;2023-09-18T01:37:51;7.25;;;3.15;;
66139;SDS011;52945;51.908;8.364;2023-09-18T01:40:53;7.07;;;3.53;;
66139;SDS011;52945;51.908;8.364;2023-09-18T01:43:54;6.53;;;3.30;;
66139;SDS011;52945;51.908;8.364;2023-09-18T01:46:58;4.55;;;3.20;;
66139;SDS011;52945;51.908;8.364;2023-09-18T01:53:05;5.90;;;3.22;;
66139;SDS011;52945;51.908;8.364;2023-09-18T01:56:06;6.35;;;3.08;;
66139;SDS011;52945;51.908;8.364;2023-09-18T01:59:07;7.28;;;3.15;;
66139;SDS011;52945;51.908;8.364;2023-09-18T02:02:07;4.45;;;3.00;;
66139;SDS011;52945;51.908;8.364;2023-09-18T02:05:09;6.57;;;3.28;;
66139;SDS011;52945;51.908;8.364;2023-09-18T02:08:11;7.60;;;3.50;;
66139;SDS011;52945;51.908;8.364;2023-09-18T02:11:12;5.50;;;3.10;;
66139;SDS011;52945;51.908;8.364;2023-09-18T02:14:14;9.60;;;3.40;;
66139;SDS011;52945;51.908;8.364;2023-09-18T02:17:15;4.50;;;2.90;;
66139;SDS011;52945;51.908;8.364;2023-09-18T02:20:15;4.30;;;3.00;;
66139;SDS011;52945;51.908;8.364;2023-09-18T02:23:18;6.80;;;3.45;;
66139;SDS011;52945;51.908;8.364;2023-09-18T02:26:19;8.00;;;3.58;;
66139;SDS011;52945;51.908;8.364;2023-09-18T02:29:20;5.32;;;2.92;;
66139;SDS011;52945;51.908;8.364;2023-09-18T02:32:21;6.90;;;2.90;;
66139;SDS011;52945;51.908;8.364;2023-09-18T02:35:21;10.55;;;3.50;;
66139;SDS011;52945;51.908;8.364;2023-09-18T02:38:22;6.30;;;3.03;;
66139;SDS011;52945;51.908;8.364;2023-09-18T02:41:24;9.52;;;3.03;;
66139;SDS011;52945;51.908;8.364;2023-09-18T02:44:24;5.40;;;2.90;;
66139;SDS011;52945;51.908;8.364;2023-09-18T02:47:26;5.85;;;3.05;;
66139;SDS011;52945;51.908;8.364;2023-09-18T02:50:27;5.63;;;2.88;;
66139;SDS011;52945;51.908;8.364;2023-09-18T02:53:28;5.70;;;3.00;;
66139;SDS011;52945;51.908;8.364;2023-09-18T02:56:29;6.13;;;2.85;;
66139;SDS011;52945;51.908;8.364;2023-09-18T02:59:29;6.25;;;3.22;;
66139;SDS011;52945;51.908;8.364;2023-09-18T03:02:31;6.53;;;3.38;;
66139;SDS011;52945;51.908;8.364;2023-09-18T03:05:32;4.95;;;3.10;;
66139;SDS011;52945;51.908;8.364;2023-09-18T03:08:32;7.68;;;2.67;;
66139;SDS011;52945;51.908;8.364;2023-09-18T03:11:35;11.43;;;3.50;;
66139;SDS011;52945;51.908;8.364;2023-09-18T03:14:35;7.22;;;2.90;;
66139;SDS011;52945;51.908;8.364;2023-09-18T03:17:36;6.75;;;2.80;;
66139;SDS011;52945;51.908;8.364;2023-09-18T03:20:36;5.10;;;3.15;;
66139;SDS011;52945;51.908;8.364;2023-09-18T03:23:37;7.72;;;3.13;;
66139;SDS011;52945;51.908;8.364;2023-09-18T03:26:37;6.85;;;2.95;;
66139;SDS011;52945;51.908;8.364;2023-09-18T03:29:38;3.47;;;2.40;;
66139;SDS011;52945;51.908;8.364;2023-09-18T03:32:39;6.30;;;3.20;;
66139;SDS011;52945;51.908;8.364;2023-09-18T03:35:46;5.95;;;3.10;;
66139;SDS011;52945;51.908;8.364;2023-09-18T03:38:50;5.22;;;2.83;;
66139;SDS011;52945;51.908;8.364;2023-09-18T03:41:50;8.20;;;3.10;;
66139;SDS011;52945;51.908;8.364;2023-09-18T03:44:51;4.38;;;3.00;;
66139;SDS011;52945;51.908;8.364;2023-09-18T03:47:51;8.18;;;2.83;;
66139;SDS011;52945;51.908;8.364;2023-09-18T03:50:52;6.38;;;3.28;;
66139;SDS011;52945;51.908;8.364;2023-09-18T03:53:53;7.78;;;2.85;;
66139;SDS011;52945;51.908;8.364;2023-09-18T03:56:55;4.40;;;2.72;;
66139;SDS011;52945;51.908;8.364;2023-09-18T03:59:55;5.05;;;3.20;;
66139;SDS011;52945;51.908;8.364;2023-09-18T04:02:56;7.57;;;3.22;;
66139;SDS011;52945;51.908;8.364;2023-09-18T04:05:57;5.85;;;2.90;;
66139;SDS011;52945;51.908;8.364;2023-09-18T04:08:57;5.85;;;3.13;;
66139;SDS011;52945;51.908;8.364;2023-09-18T04:11:58;5.35;;;3.15;;
66139;SDS011;52945;51.908;8.364;2023-09-18T04:14:58;5.10;;;2.92;;
66139;SDS011;52945;51.908;8.364;2023-09-18T04:17:59;4.85;;;3.30;;
66139;SDS011;52945;51.908;8.364;2023-09-18T04:21:00;5.57;;;2.85;;
66139;SDS011;52945;51.908;8.364;2023-09-18T04:24:00;3.85;;;2.60;;
66139;SDS011;52945;51.908;8.364;2023-09-18T04:27:04;7.30;;;2.63;;
66139;SDS011;52945;51.908;8.364;2023-09-18T04:30:05;7.93;;;3.13;;
66139;SDS011;52945;51.908;8.364;2023-09-18T04:33:09;5.60;;;3.53;;
66139;SDS011;52945;51.908;8.364;2023-09-18T04:36:09;5.55;;;2.95;;
66139;SDS011;52945;51.908;8.364;2023-09-18T04:39:10;4.32;;;2.92;;
66139;SDS011;52945;51.908;8.364;2023-09-18T04:42:10;5.45;;;2.95;;
66139;SDS011;52945;51.908;8.364;2023-09-18T04:45:11;7.35;;;2.92;;
66139;SDS011;52945;51.908;8.364;2023-09-18T04:48:11;4.50;;;2.88;;
66139;SDS011;52945;51.908;8.364;2023-09-18T04:51:12;7.22;;;3.10;;
66139;SDS011;52945;51.908;8.364;2023-09-18T04:54:13;6.25;;;3.15;;
66139;SDS011;52945;51.908;8.364;2023-09-18T04:57:15;4.80;;;2.67;;
66139;SDS011;52945;51.908;8.364;2023-09-18T05:00:16;5.80;;;2.85;;
66139;SDS011;52945;51.908;8.364;2023-09-18T05:03:17;7.07;;;3.10;;
66139;SDS011;52945;51.908;8.364;2023-09-18T05:06:18;6.03;;;3.40;;
66139;SDS011;52945;51.908;8.364;2023-09-18T05:09:18;7.72;;;3.03;;
66139;SDS011;52945;51.908;8.364;2023-09-18T05:12:19;7.00;;;3.75;;
66139;SDS011;52945;51.908;8.364;2023-09-18T05:15:20;5.57;;;2.80;;
66139;SDS011;52945;51.908;8.364;2023-09-18T05:18:20;5.28;;;3.17;;
66139;SDS011;52945;51.908;8.364;2023-09-18T05:21:21;5.93;;;3.30;;
66139;SDS011;52945;51.908;8.364;2023-09-18T05:24:24;4.88;;;3.30;;
66139;SDS011;52945;51.908;8.364;2023-09-18T05:27:27;5.47;;;3.20;;
66139;SDS011;52945;51.908;8.364;2023-09-18T05:30:28;5.95;;;3.28;;
66139;SDS011;52945;51.908;8.364;2023-09-18T05:33:34;5.75;;;3.00;;
66139;SDS011;52945;51.908;8.364;2023-09-18T05:36:35;6.63;;;3.33;;
66139;SDS011;52945;51.908;8.364;2023-09-18T05:39:36;4.93;;;2.85;;
66139;SDS011;52945;51.908;8.364;2023-09-18T05:42:37;5.03;;;3.20;;
66139;SDS011;52945;51.908;8.364;2023-09-18T05:45:39;4.90;;;3.00;;
66139;SDS011;52945;51.908;8.364;2023-09-18T05:48:40;5.35;;;3.15;;
66139;SDS011;52945;51.908;8.364;2023-09-18T05:51:42;7.32;;;3.20;;
66139;SDS011;52945;51.908;8.364;2023-09-18T05:54:43;6.55;;;3.30;;
66139;SDS011;52945;51.908;8.364;2023-09-18T05:57:44;5.93;;;3.10;;
66139;SDS011;52945;51.908;8.364;2023-09-18T06:00:44;6.00;;;2.95;;
66139;SDS011;52945;51.908;8.364;2023-09-18T06:03:45;6.35;;;3.40;;
66139;SDS011;52945;51.908;8.364;2023-09-18T06:06:46;4.75;;;3.00;;
66139;SDS011;52945;51.908;8.364;2023-09-18T06:09:46;5.68;;;3.30;;
66139;SDS011;52945;51.908;8.364;2023-09-18T06:12:47;5.55;;;2.88;;
66139;SDS011;52945;51.908;8.364;2023-09-18T06:15:48;6.90;;;3.00;;
66139;SDS011;52945;51.908;8.364;2023-09-18T06:18:48;10.02;;;3.65;;
66139;SDS011;52945;51.908;8.364;2023-09-18T06:21:49;6.68;;;3.40;;
66139;SDS011;52945;51.908;8.364;2023-09-18T06:24:50;5.72;;;2.88;;
66139;SDS011;52945;51.908;8.364;2023-09-18T06:27:50;5.80;;;3.10;;
66139;SDS011;52945;51.908;8.364;2023-09-18T06:30:51;6.97;;;3.20;;
66139;SDS011;52945;51.908;8.364;2023-09-18T06:33:53;4.50;;;3.00;;
66139;SDS011;52945;51.908;8.364;2023-09-18T06:36:54;4.72;;;3.03;;
66139;SDS011;52945;51.908;8.364;2023-09-18T06:39:55;6.85;;;3.00;;
66139;SDS011;52945;51.908;8.364;2023-09-18T06:42:59;7.07;;;3.05;;
66139;SDS011;52945;51.908;8.364;2023-09-18T06:46:00;7.30;;;3.42;;
66139;SDS011;52945;51.908;8.364;2023-09-18T06:49:00;5.70;;;3.03;;
66139;SDS011;52945;51.908;8.364;2023-09-18T06:52:01;6.35;;;3.25;;
66139;SDS011;52945;51.908;8.364;2023-09-18T06:55:04;5.70;;;2.92;;
66139;SDS011;52945;51.908;8.364;2023-09-18T06:58:06;6.60;;;2.83;;
66139;SDS011;52945;51.908;8.364;2023-09-18T07:01:06;7.03;;;2.83;;
66139;SDS011;52945;51.908;8.364;2023-09-18T07:04:09;5.60;;;2.80;;
66139;SDS011;52945;51.908;8.364;2023-09-18T07:07:11;4.13;;;2.55;;
66139;SDS011;52945;51.908;8.364;2023-09-18T07:10:12;8.65;;;2.75;;
66139;SDS011;52945;51.908;8.364;2023-09-18T07:13:14;6.70;;;2.75;;
66139;SDS011;52945;51.908;8.364;2023-09-18T07:16:15;6.88;;;2.80;;
66139;SDS011;52945;51.908;8.364;2023-09-18T07:19:16;4.82;;;2.17;;
66139;SDS011;52945;51.908;8.364;2023-09-18T07:22:19;5.38;;;2.17;;
66139;SDS011;52945;51.908;8.364;2023-09-18T07:25:19;3.72;;;1.90;;
66139;SDS011;52945;51.908;8.364;2023-09-18T07:28:20;2.60;;;1.50;;
66139;SDS011;52945;51.908;8.364;2023-09-18T07:31:20;3.55;;;1.50;;
66139;SDS011;52945;51.908;8.364;2023-09-18T07:34:21;6.18;;;1.75;;
66139;SDS011;52945;51.908;8.364;2023-09-18T07:37:22;3.90;;;1.60;;
66139;SDS011;52945;51.908;8.364;2023-09-18T07:40:23;4.00;;;1.27;;
66139;SDS011;52945;51.908;8.364;2023-09-18T07:43:26;4.72;;;1.45;;
66139;SDS011;52945;51.908;8.364;2023-09-18T07:46:26;3.58;;;1.48;;
66139;SDS011;52945;51.908;8.364;2023-09-18T07:49:28;3.83;;;1.70;;
66139;SDS011;52945;51.908;8.364;2023-09-18T07:52:29;4.75;;;1.42;;
66139;SDS011;52945;51.908;8.364;2023-09-18T07:55:31;2.50;;;1.20;;
66139;SDS011;52945;51.908;8.364;2023-09-18T07:58:32;11.38;;;3.33;;
66139;SDS011;52945;51.908;8.364;2023-09-18T08:01:33;3.72;;;1.20;;
66139;SDS011;52945;51.908;8.364;2023-09-18T08:04:34;6.43;;;1.38;;
66139;SDS011;52945;51.908;8.364;2023-09-18T08:07:36;3.83;;;1.00;;
66139;SDS011;52945;51.908;8.364;2023-09-18T08:10:36;4.30;;;1.40;;
66139;SDS011;52945;51.908;8.364;2023-09-18T08:13:37;1.95;;;1.13;;
66139;SDS011;52945;51.908;8.364;2023-09-18T08:16:38;3.58;;;1.30;;
66139;SDS011;52945;51.908;8.364;2023-09-18T08:19:39;3.22;;;1.35;;
66139;SDS011;52945;51.908;8.364;2023-09-18T08:22:40;5.50;;;1.25;;
66139;SDS011;52945;51.908;8.364;2023-09-18T08:25:40;3.90;;;1.20;;
66139;SDS011;52945;51.908;8.364;2023-09-18T08:28:41;3.33;;;1.27;;
66139;SDS011;52945;51.908;8.364;2023-09-18T08:31:44;5.85;;;1.50;;
66139;SDS011;52945;51.908;8.364;2023-09-18T08:34:44;4.28;;;1.20;;
66139;SDS011;52945;51.908;8.364;2023-09-18T08:37:45;3.05;;;1.10;;
66139;SDS011;52945;51.908;8.364;2023-09-18T08:40:46;2.95;;;1.25;;
66139;SDS011;52945;51.908;8.364;2023-09-18T08:43:51;2.78;;;1.10;;
66139;SDS011;52945;51.908;8.364;2023-09-18T08:46:56;3.85;;;1.30;;
66139;SDS011;52945;51.908;8.364;2023-09-18T08:49:57;5.22;;;1.30;;
66139;SDS011;52945;51.908;8.364;2023-09-18T08:53:00;4.68;;;1.20;;
66139;SDS011;52945;51.908;8.364;2023-09-18T08:56:02;5.70;;;1.40;;
66139;SDS011;52945;51.908;8.364;2023-09-18T08:59:05;4.28;;;1.00;;
66139;SDS011;52945;51.908;8.364;2023-09-18T09:02:06;3.80;;;1.38;;
66139;SDS011;52945;51.908;8.364;2023-09-18T09:05:07;3.08;;;1.23;;
66139;SDS011;52945;51.908;8.364;2023-09-18T09:08:07;3.88;;;1.15;;
66139;SDS011;52945;51.908;8.364;2023-09-18T09:11:08;3.03;;;1.42;;
66139;SDS011;52945;51.908;8.364;2023-09-18T09:14:12;4.95;;;1.17;;
66139;SDS011;52945;51.908;8.364;2023-09-18T09:17:18;2.10;;;1.20;;
66139;SDS011;52945;51.908;8.364;2023-09-18T09:20:20;5.38;;;1.23;;
66139;SDS011;52945;51.908;8.364;2023-09-18T09:23:21;2.85;;;1.10;;
66139;SDS011;52945;51.908;8.364;2023-09-18T09:26:22;3.92;;;1.13;;
66139;SDS011;52945;51.908;8.364;2023-09-18T09:29:23;3.60;;;1.15;;
66139;SDS011;52945;51.908;8.364;2023-09-18T09:32:26;2.88;;;1.23;;
66139;SDS011;52945;51.908;8.364;2023-09-18T09:35:32;3.20;;;1.30;;
66139;SDS011;52945;51.908;8.364;2023-09-18T09:38:36;3.83;;;1.20;;
66139;SDS011;52945;51.908;8.364;2023-09-18T09:41:37;4.07;;;1.52;;
66139;SDS011;52945;51.908;8.364;2023-09-18T09:44:45;5.10;;;1.50;;
66139;SDS011;52945;51.908;8.364;2023-09-18T09:47:46;1.50;;;1.00;;
66139;SDS011;52945;51.908;8.364;2023-09-18T09:50:47;3.13;;;1.13;;
66139;SDS011;52945;51.908;8.364;2023-09-18T09:53:48;3.17;;;1.20;;
66139;SDS011;52945;51.908;8.364;2023-09-18T09:56:51;2.97;;;1.20;;
66139;SDS011;52945;51.908;8.364;2023-09-18T09:59:51;3.83;;;1.10;;
66139;SDS011;52945;51.908;8.364;2023-09-18T10:02:55;2.90;;;1.05;;
66139;SDS011;52945;51.908;8.364;2023-09-18T10:06:01;2.95;;;1.00;;
66139;SDS011;52945;51.908;8.364;2023-09-18T10:09:04;2.88;;;1.27;;
66139;SDS011;52945;51.908;8.364;2023-09-18T10:12:11;1.75;;;1.00;;
66139;SDS011;52945;51.908;8.364;2023-09-18T10:15:15;2.95;;;1.38;;
66139;SDS011;52945;51.908;8.364;2023-09-18T10:24:48;2.58;;;1.30;;
66139;SDS011;52945;51.908;8.364;2023-09-18T10:27:51;3.03;;;1.25;;
66139;SDS011;52945;51.908;8.364;2023-09-18T10:30:54;2.92;;;1.48;;
66139;SDS011;52945;51.908;8.364;2023-09-18T10:33:57;1.52;;;1.08;;
66139;SDS011;52945;51.908;8.364;2023-09-18T10:36:59;2.17;;;1.20;;
66139;SDS011;52945;51.908;8.364;2023-09-18T10:40:05;5.97;;;1.48;;
66139;SDS011;52945;51.908;8.364;2023-09-18T10:43:08;5.47;;;1.27;;
66139;SDS011;52945;51.908;8.364;2023-09-18T10:46:11;2.70;;;1.17;;
66139;SDS011;52945;51.908;8.364;2023-09-18T10:49:13;3.55;;;1.30;;
66139;SDS011;52945;51.908;8.364;2023-09-18T10:52:15;1.67;;;1.10;;
66139;SDS011;52945;51.908;8.364;2023-09-18T10:55:15;3.80;;;1.48;;
66139;SDS011;52945;51.908;8.364;2023-09-18T10:58:22;2.42;;;1.20;;
66139;SDS011;52945;51.908;8.364;2023-09-18T11:01:27;2.45;;;0.90;;
66139;SDS011;52945;51.908;8.364;2023-09-18T11:04:29;2.85;;;1.33;;
66139;SDS011;52945;51.908;8.364;2023-09-18T11:07:33;3.70;;;1.20;;
66139;SDS011;52945;51.908;8.364;2023-09-18T11:10:34;1.50;;;1.05;;
66139;SDS011;52945;51.908;8.364;2023-09-18T11:13:38;2.88;;;1.42;;
66139;SDS011;52945;51.908;8.364;2023-09-18T11:17:02;1.73;;;1.27;;
66139;SDS011;52945;51.908;8.364;2023-09-18T11:20:05;1.80;;;1.10;;
66139;SDS011;52945;51.908;8.364;2023-09-18T11:23:16;2.47;;;1.20;;
66139;SDS011;52945;51.908;8.364;2023-09-18T11:26:18;3.05;;;1.15;;
66139;SDS011;52945;51.908;8.364;2023-09-18T11:29:23;2.63;;;1.25;;
66139;SDS011;52945;51.908;8.364;2023-09-18T11:32:38;2.78;;;1.38;;
66139;SDS011;52945;51.908;8.364;2023-09-18T11:35:49;2.58;;;1.20;;
66139;SDS011;52945;51.908;8.364;2023-09-18T11:38:54;3.72;;;1.20;;
66139;SDS011;52945;51.908;8.364;2023-09-18T11:42:11;4.97;;;1.30;;
66139;SDS011;52945;51.908;8.364;2023-09-18T11:45:17;4.18;;;1.23;;
66139;SDS011;52945;51.908;8.364;2023-09-18T11:48:18;2.83;;;0.90;;
66139;SDS011;52945;51.908;8.364;2023-09-18T11:51:23;1.80;;;1.02;;
66139;SDS011;52945;51.908;8.364;2023-09-18T11:54:24;1.85;;;1.00;;
66139;SDS011;52945;51.908;8.364;2023-09-18T11:57:27;1.90;;;1.17;;
66139;SDS011;52945;51.908;8.364;2023-09-18T12:00:28;1.05;;;0.93;;
66139;SDS011;52945;51.908;8.364;2023-09-18T12:03:30;2.30;;;0.93;;
66139;SDS011;52945;51.908;8.364;2023-09-18T12:06:32;1.85;;;1.00;;
66139;SDS011;52945;51.908;8.364;2023-09-18T12:09:33;2.58;;;1.00;;
66139;SDS011;52945;51.908;8.364;2023-09-18T12:12:35;2.95;;;0.88;;
66139;SDS011;52945;51.908;8.364;2023-09-18T12:15:35;0.60;;;0.60;;
66139;SDS011;52945;51.908;8.364;2023-09-18T12:18:44;1.40;;;0.77;;
66139;SDS011;52945;51.908;8.364;2023-09-18T12:21:49;1.65;;;1.02;;
66139;SDS011;52945;51.908;8.364;2023-09-18T12:24:50;0.90;;;0.63;;
66139;SDS011;52945;51.908;8.364;2023-09-18T12:27:54;1.40;;;0.90;;
66139;SDS011;52945;51.908;8.364;2023-09-18T12:30:56;2.38;;;1.10;;
66139;SDS011;52945;51.908;8.364;2023-09-18T12:33:56;2.97;;;1.02;;
66139;SDS011;52945;51.908;8.364;2023-09-18T12:36:58;1.20;;;0.90;;
66139;SDS011;52945;51.908;8.364;2023-09-18T12:40:00;3.20;;;0.85;;
66139;SDS011;52945;51.908;8.364;2023-09-18T12:43:01;2.83;;;0.90;;
66139;SDS011;52945;51.908;8.364;2023-09-18T12:46:04;2.13;;;1.00;;
66139;SDS011;52945;51.908;8.364;2023-09-18T12:49:22;0.85;;;0.80;;
66139;SDS011;52945;51.908;8.364;2023-09-18T12:52:28;5.85;;;1.20;;
66139;SDS011;52945;51.908;8.364;2023-09-18T12:55:29;3.47;;;0.90;;
66139;SDS011;52945;51.908;8.364;2023-09-18T12:58:29;1.42;;;0.80;;
66139;SDS011;52945;51.908;8.364;2023-09-18T13:01:30;1.05;;;0.82;;
66139;SDS011;52945;51.908;8.364;2023-09-18T13:04:36;1.38;;;0.93;;
66139;SDS011;52945;51.908;8.364;2023-09-18T13:07:44;2.58;;;0.75;;
66139;SDS011;52945;51.908;8.364;2023-09-18T13:10:45;1.55;;;0.80;;
66139;SDS011;52945;51.908;8.364;2023-09-18T13:13:57;2.60;;;1.05;;
66139;SDS011;52945;51.908;8.364;2023-09-18T13:17:00;2.10;;;1.08;;
66139;SDS011;52945;51.908;8.364;2023-09-18T13:20:23;3.05;;;0.80;;
66139;SDS011;52945;51.908;8.364;2023-09-18T13:23:29;3.25;;;1.10;;
66139;SDS011;52945;51.908;8.364;2023-09-18T13:26:31;0.95;;;0.70;;
66139;SDS011;52945;51.908;8.364;2023-09-18T13:29:32;1.23;;;0.70;;
66139;SDS011;52945;51.908;8.364;2023-09-18T13:32:34;1.52;;;0.88;;
66139;SDS011;52945;51.908;8.364;2023-09-18T13:35:36;1.63;;;1.00;;
66139;SDS011;52945;51.908;8.364;2023-09-18T13:38:38;3.45;;;0.90;;
66139;SDS011;52945;51.908;8.364;2023-09-18T13:41:39;2.08;;;1.00;;
66139;SDS011;52945;51.908;8.364;2023-09-18T13:44:41;2.05;;;0.88;;
66139;SDS011;52945;51.908;8.364;2023-09-18T13:47:42;2.42;;;0.93;;
66139;SDS011;52945;51.908;8.364;2023-09-18T13:50:44;1.55;;;0.68;;
66139;SDS011;52945;51.908;8.364;2023-09-18T13:53:48;3.15;;;0.88;;
66139;SDS011;52945;51.908;8.364;2023-09-18T13:56:50;1.90;;;0.90;;
66139;SDS011;52945;51.908;8.364;2023-09-18T13:59:51;1.17;;;0.90;;
66139;SDS011;52945;51.908;8.364;2023-09-18T14:02:53;3.65;;;0.95;;
66139;SDS011;52945;51.908;8.364;2023-09-18T14:05:55;2.72;;;1.10;;
66139;SDS011;52945;51.908;8.364;2023-09-18T14:08:55;1.77;;;0.80;;
66139;SDS011;52945;51.908;8.364;2023-09-18T14:11:56;2.67;;;0.80;;
66139;SDS011;52945;51.908;8.364;2023-09-18T14:14:57;4.93;;;1.27;;
66139;SDS011;52945;51.908;8.364;2023-09-18T14:17:58;3.50;;;1.10;;
66139;SDS011;52945;51.908;8.364;2023-09-18T14:20:59;2.50;;;1.10;;
66139;SDS011;52945;51.908;8.364;2023-09-18T14:24:00;4.22;;;0.98;;
66139;SDS011;52945;51.908;8.364;2023-09-18T14:27:01;5.18;;;1.10;;
66139;SDS011;52945;51.908;8.364;2023-09-18T14:30:03;2.58;;;1.42;;
66139;SDS011;52945;51.908;8.364;2023-09-18T14:33:07;4.22;;;1.40;;
66139;SDS011;52945;51.908;8.364;2023-09-18T14:36:08;1.52;;;0.88;;
66139;SDS011;52945;51.908;8.364;2023-09-18T14:39:10;2.72;;;1.10;;
66139;SDS011;52945;51.908;8.364;2023-09-18T14:42:11;3.97;;;1.30;;
66139;SDS011;52945;51.908;8.364;2023-09-18T14:45:12;4.15;;;1.15;;
66139;SDS011;52945;51.908;8.364;2023-09-18T14:48:16;4.18;;;1.38;;
66139;SDS011;52945;51.908;8.364;2023-09-18T14:51:17;1.48;;;1.00;;
66139;SDS011;52945;51.908;8.364;2023-09-18T14:54:18;3.60;;;1.30;;
66139;SDS011;52945;51.908;8.364;2023-09-18T14:57:18;3.15;;;1.25;;
66139;SDS011;52945;51.908;8.364;2023-09-18T15:00:20;2.42;;;1.42;;
66139;SDS011;52945;51.908;8.364;2023-09-18T15:03:21;2.90;;;1.10;;
66139;SDS011;52945;51.908;8.364;2023-09-18T15:06:24;2.38;;;1.30;;
66139;SDS011;52945;51.908;8.364;2023-09-18T15:09:26;4.68;;;1.40;;
66139;SDS011;52945;51.908;8.364;2023-09-18T15:12:26;2.85;;;1.25;;
66139;SDS011;52945;51.908;8.364;2023-09-18T15:15:27;2.90;;;1.17;;
66139;SDS011;52945;51.908;8.364;2023-09-18T15:18:28;1.95;;;1.17;;
66139;SDS011;52945;51.908;8.364;2023-09-18T15:21:29;3.67;;;1.40;;
66139;SDS011;52945;51.908;8.364;2023-09-18T15:24:30;3.83;;;1.38;;
66139;SDS011;52945;51.908;8.364;2023-09-18T15:27:30;3.67;;;1.50;;
66139;SDS011;52945;51.908;8.364;2023-09-18T15:30:31;2.15;;;1.17;;
66139;SDS011;52945;51.908;8.364;2023-09-18T15:33:32;3.72;;;1.50;;
66139;SDS011;52945;51.908;8.364;2023-09-18T15:36:32;1.75;;;1.08;;
66139;SDS011;52945;51.908;8.364;2023-09-18T15:39:34;2.75;;;1.20;;
66139;SDS011;52945;51.908;8.364;2023-09-18T15:42:39;1.88;;;1.02;;
66139;SDS011;52945;51.908;8.364;2023-09-18T15:45:39;3.78;;;1.27;;
66139;SDS011;52945;51.908;8.364;2023-09-18T15:48:40;3.03;;;1.20;;
66139;SDS011;52945;51.908;8.364;2023-09-18T15:51:42;2.97;;;1.40;;
66139;SDS011;52945;51.908;8.364;2023-09-18T15:54:44;2.90;;;1.40;;
66139;SDS011;52945;51.908;8.364;2023-09-18T15:57:44;2.10;;;1.08;;
66139;SDS011;52945;51.908;8.364;2023-09-18T16:00:45;1.98;;;1.08;;
66139;SDS011;52945;51.908;8.364;2023-09-18T16:03:46;3.08;;;1.10;;
66139;SDS011;52945;51.908;8.364;2023-09-18T16:06:49;2.40;;;1.10;;
66139;SDS011;52945;51.908;8.364;2023-09-18T16:09:50;2.35;;;1.38;;
66139;SDS011;52945;51.908;8.364;2023-09-18T16:12:51;1.52;;;1.15;;
66139;SDS011;52945;51.908;8.364;2023-09-18T16:15:51;3.15;;;1.10;;
66139;SDS011;52945;51.908;8.364;2023-09-18T16:18:52;2.83;;;1.20;;
66139;SDS011;52945;51.908;8.364;2023-09-18T16:21:56;2.25;;;1.20;;
66139;SDS011;52945;51.908;8.364;2023-09-18T16:24:57;1.83;;;1.10;;
66139;SDS011;52945;51.908;8.364;2023-09-18T16:27:59;1.52;;;1.20;;
66139;SDS011;52945;51.908;8.364;2023-09-18T16:31:01;1.95;;;1.08;;
66139;SDS011;52945;51.908;8.364;2023-09-18T16:34:06;2.15;;;1.15;;
66139;SDS011;52945;51.908;8.364;2023-09-18T16:37:07;2.58;;;1.35;;
66139;SDS011;52945;51.908;8.364;2023-09-18T16:40:08;3.92;;;1.20;;
66139;SDS011;52945;51.908;8.364;2023-09-18T16:43:11;1.95;;;1.00;;
66139;SDS011;52945;51.908;8.364;2023-09-18T16:46:13;2.83;;;1.15;;
66139;SDS011;52945;51.908;8.364;2023-09-18T16:49:14;2.70;;;1.35;;
66139;SDS011;52945;51.908;8.364;2023-09-18T16:52:18;2.53;;;1.08;;
66139;SDS011;52945;51.908;8.364;2023-09-18T16:55:20;1.52;;;1.27;;
66139;SDS011;52945;51.908;8.364;2023-09-18T16:58:20;3.33;;;1.20;;
66139;SDS011;52945;51.908;8.364;2023-09-18T17:01:21;1.48;;;1.02;;
66139;SDS011;52945;51.908;8.364;2023-09-18T17:04:21;2.65;;;1.30;;
66139;SDS011;52945;51.908;8.364;2023-09-18T17:07:22;2.63;;;1.40;;
66139;SDS011;52945;51.908;8.364;2023-09-18T17:10:23;1.10;;;1.00;;
66139;SDS011;52945;51.908;8.364;2023-09-18T17:13:23;2.05;;;1.45;;
66139;SDS011;52945;51.908;8.364;2023-09-18T17:16:24;1.77;;;1.15;;
66139;SDS011;52945;51.908;8.364;2023-09-18T17:19:26;2.05;;;1.20;;
66139;SDS011;52945;51.908;8.364;2023-09-18T17:22:27;2.25;;;1.23;;
66139;SDS011;52945;51.908;8.364;2023-09-18T17:25:28;2.28;;;1.33;;
66139;SDS011;52945;51.908;8.364;2023-09-18T17:28:28;1.50;;;1.05;;
66139;SDS011;52945;51.908;8.364;2023-09-18T17:31:29;1.42;;;1.15;;
66139;SDS011;52945;51.908;8.364;2023-09-18T17:34:30;3.28;;;1.40;;
66139;SDS011;52945;51.908;8.364;2023-09-18T17:37:31;1.83;;;1.20;;
66139;SDS011;52945;51.908;8.364;2023-09-18T17:40:31;2.67;;;1.15;;
66139;SDS011;52945;51.908;8.364;2023-09-18T17:43:32;2.08;;;1.00;;
66139;SDS011;52945;51.908;8.364;2023-09-18T17:46:33;1.98;;;1.10;;
66139;SDS011;52945;51.908;8.364;2023-09-18T17:49:33;2.35;;;1.17;;
66139;SDS011;52945;51.908;8.364;2023-09-18T17:52:35;1.90;;;1.45;;
66139;SDS011;52945;51.908;8.364;2023-09-18T17:55:36;2.60;;;1.08;;
66139;SDS011;52945;51.908;8.364;2023-09-18T17:58:37;2.65;;;1.30;;
66139;SDS011;52945;51.908;8.364;2023-09-18T18:01:38;5.55;;;1.30;;
66139;SDS011;52945;51.908;8.364;2023-09-18T18:04:39;2.25;;;1.10;;
66139;SDS011;52945;51.908;8.364;2023-09-18T18:07:39;2.80;;;1.30;;
66139;SDS011;52945;51.908;8.364;2023-09-18T18:10:43;2.58;;;1.20;;
66139;SDS011;52945;51.908;8.364;2023-09-18T18:13:44;2.30;;;1.20;;
66139;SDS011;52945;51.908;8.364;2023-09-18T18:16:45;1.88;;;1.23;;
66139;SDS011;52945;51.908;8.364;2023-09-18T18:19:45;1.50;;;1.05;;
66139;SDS011;52945;51.908;8.364;2023-09-18T18:22:47;3.13;;;1.27;;
66139;SDS011;52945;51.908;8.364;2023-09-18T18:25:50;2.13;;;1.50;;
66139;SDS011;52945;51.908;8.364;2023-09-18T18:28:52;1.92;;;1.42;;